sensor_id;sensor_type;location;lat;lon;timestamp;P1;durP1;ratioP1;P2;durP2;ratioP2
73593;SDS011;64760;53.404;23.498;2023-09-07T00:00:20;11.68;;;6.32;;
73593;SDS011;64760;53.404;23.498;2023-09-07T00:03:06;9.20;;;6.05;;
73593;SDS011;64760;53.404;23.498;2023-09-07T00:05:32;10.43;;;6.88;;
73593;SDS011;64760;53.404;23.498;2023-09-07T00:07:59;10.40;;;6.85;;
73593;SDS011;64760;53.404;23.498;2023-09-07T00:10:25;13.52;;;6.85;;
73593;SDS011;64760;53.404;23.498;2023-09-07T00:12:52;11.07;;;6.93;;
73593;SDS011;64760;53.404;23.498;2023-09-07T00:15:18;8.48;;;6.07;;
73593;SDS011;64760;53.404;23.498;2023-09-07T00:17:46;9.15;;;6.32;;
73593;SDS011;64760;53.404;23.498;2023-09-07T00:20:12;10.60;;;6.43;;
73593;SDS011;64760;53.404;23.498;2023-09-07T00:22:41;11.07;;;6.80;;
73593;SDS011;64760;53.404;23.498;2023-09-07T00:25:08;9.65;;;6.43;;
73593;SDS011;64760;53.404;23.498;2023-09-07T00:27:35;9.32;;;5.80;;
73593;SDS011;64760;53.404;23.498;2023-09-07T00:30:02;12.73;;;7.30;;
73593;SDS011;64760;53.404;23.498;2023-09-07T00:32:32;11.50;;;6.72;;
73593;SDS011;64760;53.404;23.498;2023-09-07T00:34:59;10.00;;;6.93;;
73593;SDS011;64760;53.404;23.498;2023-09-07T00:37:25;13.15;;;6.57;;
73593;SDS011;64760;53.404;23.498;2023-09-07T00:39:51;10.95;;;6.90;;
73593;SDS011;64760;53.404;23.498;2023-09-07T00:42:18;9.88;;;6.95;;
73593;SDS011;64760;53.404;23.498;2023-09-07T00:44:45;10.23;;;6.38;;
73593;SDS011;64760;53.404;23.498;2023-09-07T00:47:11;11.15;;;7.20;;
73593;SDS011;64760;53.404;23.498;2023-09-07T00:49:38;11.73;;;6.50;;
73593;SDS011;64760;53.404;23.498;2023-09-07T00:52:05;10.55;;;6.68;;
73593;SDS011;64760;53.404;23.498;2023-09-07T00:54:31;10.07;;;6.68;;
73593;SDS011;64760;53.404;23.498;2023-09-07T00:56:58;10.63;;;6.22;;
73593;SDS011;64760;53.404;23.498;2023-09-07T00:59:25;8.93;;;5.80;;
73593;SDS011;64760;53.404;23.498;2023-09-07T01:01:51;9.55;;;6.03;;
73593;SDS011;64760;53.404;23.498;2023-09-07T01:04:19;8.98;;;5.43;;
73593;SDS011;64760;53.404;23.498;2023-09-07T01:06:47;9.00;;;6.18;;
73593;SDS011;64760;53.404;23.498;2023-09-07T01:09:20;10.43;;;5.75;;
73593;SDS011;64760;53.404;23.498;2023-09-07T01:11:49;9.43;;;6.45;;
73593;SDS011;64760;53.404;23.498;2023-09-07T01:14:17;12.45;;;6.65;;
73593;SDS011;64760;53.404;23.498;2023-09-07T01:16:43;8.20;;;6.05;;
73593;SDS011;64760;53.404;23.498;2023-09-07T01:19:10;9.30;;;5.90;;
73593;SDS011;64760;53.404;23.498;2023-09-07T01:21:37;10.85;;;5.55;;
73593;SDS011;64760;53.404;23.498;2023-09-07T01:24:08;9.98;;;5.05;;
73593;SDS011;64760;53.404;23.498;2023-09-07T01:26:36;9.85;;;5.15;;
73593;SDS011;64760;53.404;23.498;2023-09-07T01:29:08;9.40;;;5.63;;
73593;SDS011;64760;53.404;23.498;2023-09-07T01:31:36;6.85;;;4.72;;
73593;SDS011;64760;53.404;23.498;2023-09-07T01:34:04;6.95;;;4.35;;
73593;SDS011;64760;53.404;23.498;2023-09-07T01:36:33;9.70;;;4.95;;
73593;SDS011;64760;53.404;23.498;2023-09-07T01:39:00;9.23;;;4.78;;
73593;SDS011;64760;53.404;23.498;2023-09-07T01:41:28;7.38;;;4.75;;
73593;SDS011;64760;53.404;23.498;2023-09-07T01:43:56;6.93;;;4.88;;
73593;SDS011;64760;53.404;23.498;2023-09-07T01:46:23;9.40;;;4.97;;
73593;SDS011;64760;53.404;23.498;2023-09-07T01:48:49;9.55;;;4.97;;
73593;SDS011;64760;53.404;23.498;2023-09-07T01:53:46;7.22;;;4.63;;
73593;SDS011;64760;53.404;23.498;2023-09-07T01:56:17;8.25;;;4.80;;
73593;SDS011;64760;53.404;23.498;2023-09-07T01:58:44;8.02;;;4.65;;
73593;SDS011;64760;53.404;23.498;2023-09-07T02:01:23;9.90;;;5.32;;
73593;SDS011;64760;53.404;23.498;2023-09-07T02:03:55;8.45;;;4.75;;
73593;SDS011;64760;53.404;23.498;2023-09-07T02:06:25;11.30;;;5.70;;
73593;SDS011;64760;53.404;23.498;2023-09-07T02:08:52;8.38;;;5.20;;
73593;SDS011;64760;53.404;23.498;2023-09-07T02:11:19;7.57;;;5.20;;
73593;SDS011;64760;53.404;23.498;2023-09-07T02:13:46;7.95;;;5.25;;
73593;SDS011;64760;53.404;23.498;2023-09-07T02:16:14;9.50;;;4.45;;
73593;SDS011;64760;53.404;23.498;2023-09-07T02:18:40;8.20;;;5.20;;
73593;SDS011;64760;53.404;23.498;2023-09-07T02:21:09;8.18;;;5.03;;
73593;SDS011;64760;53.404;23.498;2023-09-07T02:23:36;8.63;;;4.88;;
73593;SDS011;64760;53.404;23.498;2023-09-07T02:26:03;7.43;;;4.95;;
73593;SDS011;64760;53.404;23.498;2023-09-07T02:28:30;9.50;;;5.05;;
73593;SDS011;64760;53.404;23.498;2023-09-07T02:31:02;8.05;;;4.57;;
73593;SDS011;64760;53.404;23.498;2023-09-07T02:33:29;8.35;;;5.30;;
73593;SDS011;64760;53.404;23.498;2023-09-07T02:35:57;9.25;;;5.20;;
73593;SDS011;64760;53.404;23.498;2023-09-07T02:38:23;7.45;;;4.75;;
73593;SDS011;64760;53.404;23.498;2023-09-07T02:40:50;7.22;;;4.63;;
73593;SDS011;64760;53.404;23.498;2023-09-07T02:43:16;8.88;;;5.45;;
73593;SDS011;64760;53.404;23.498;2023-09-07T02:45:43;8.95;;;4.85;;
73593;SDS011;64760;53.404;23.498;2023-09-07T02:48:10;6.78;;;4.57;;
73593;SDS011;64760;53.404;23.498;2023-09-07T02:50:38;10.35;;;4.97;;
73593;SDS011;64760;53.404;23.498;2023-09-07T02:53:06;9.98;;;4.68;;
73593;SDS011;64760;53.404;23.498;2023-09-07T02:55:33;7.63;;;4.68;;
73593;SDS011;64760;53.404;23.498;2023-09-07T02:58:05;8.63;;;5.03;;
73593;SDS011;64760;53.404;23.498;2023-09-07T03:00:32;7.10;;;4.55;;
73593;SDS011;64760;53.404;23.498;2023-09-07T03:03:00;12.27;;;5.55;;
73593;SDS011;64760;53.404;23.498;2023-09-07T03:05:27;8.25;;;4.78;;
73593;SDS011;64760;53.404;23.498;2023-09-07T03:07:53;9.05;;;5.07;;
73593;SDS011;64760;53.404;23.498;2023-09-07T03:10:21;7.18;;;4.30;;
73593;SDS011;64760;53.404;23.498;2023-09-07T03:12:48;6.45;;;4.07;;
73593;SDS011;64760;53.404;23.498;2023-09-07T03:15:15;9.95;;;4.65;;
73593;SDS011;64760;53.404;23.498;2023-09-07T03:17:42;7.72;;;4.47;;
73593;SDS011;64760;53.404;23.498;2023-09-07T03:20:09;6.55;;;4.18;;
73593;SDS011;64760;53.404;23.498;2023-09-07T03:22:46;10.88;;;5.30;;
73593;SDS011;64760;53.404;23.498;2023-09-07T03:25:14;7.07;;;4.50;;
73593;SDS011;64760;53.404;23.498;2023-09-07T03:27:42;10.55;;;4.82;;
73593;SDS011;64760;53.404;23.498;2023-09-07T03:30:11;10.23;;;5.60;;
73593;SDS011;64760;53.404;23.498;2023-09-07T03:32:38;10.82;;;4.93;;
73593;SDS011;64760;53.404;23.498;2023-09-07T03:35:05;8.20;;;4.88;;
73593;SDS011;64760;53.404;23.498;2023-09-07T03:37:36;9.73;;;5.38;;
73593;SDS011;64760;53.404;23.498;2023-09-07T03:40:06;8.15;;;5.00;;
73593;SDS011;64760;53.404;23.498;2023-09-07T03:42:36;8.10;;;4.80;;
73593;SDS011;64760;53.404;23.498;2023-09-07T03:45:05;10.27;;;5.25;;
73593;SDS011;64760;53.404;23.498;2023-09-07T03:47:35;12.13;;;5.57;;
73593;SDS011;64760;53.404;23.498;2023-09-07T03:50:04;9.77;;;5.57;;
73593;SDS011;64760;53.404;23.498;2023-09-07T03:52:32;9.35;;;5.97;;
73593;SDS011;64760;53.404;23.498;2023-09-07T03:55:04;8.73;;;5.35;;
73593;SDS011;64760;53.404;23.498;2023-09-07T03:57:30;10.15;;;6.25;;
73593;SDS011;64760;53.404;23.498;2023-09-07T03:59:58;8.73;;;5.88;;
73593;SDS011;64760;53.404;23.498;2023-09-07T04:02:25;9.90;;;5.93;;
73593;SDS011;64760;53.404;23.498;2023-09-07T04:04:53;9.88;;;5.88;;
73593;SDS011;64760;53.404;23.498;2023-09-07T04:07:23;12.55;;;6.57;;
73593;SDS011;64760;53.404;23.498;2023-09-07T04:09:50;9.63;;;5.30;;
73593;SDS011;64760;53.404;23.498;2023-09-07T04:12:17;9.25;;;5.57;;
73593;SDS011;64760;53.404;23.498;2023-09-07T04:14:43;9.35;;;5.82;;
73593;SDS011;64760;53.404;23.498;2023-09-07T04:17:11;10.63;;;5.60;;
73593;SDS011;64760;53.404;23.498;2023-09-07T04:19:37;12.18;;;5.60;;
73593;SDS011;64760;53.404;23.498;2023-09-07T04:22:04;9.35;;;5.20;;
73593;SDS011;64760;53.404;23.498;2023-09-07T04:24:31;12.68;;;6.00;;
73593;SDS011;64760;53.404;23.498;2023-09-07T04:26:59;12.27;;;5.68;;
73593;SDS011;64760;53.404;23.498;2023-09-07T04:29:31;10.65;;;6.32;;
73593;SDS011;64760;53.404;23.498;2023-09-07T04:31:57;12.02;;;5.85;;
73593;SDS011;64760;53.404;23.498;2023-09-07T04:34:24;10.63;;;6.10;;
73593;SDS011;64760;53.404;23.498;2023-09-07T04:36:52;9.13;;;5.65;;
73593;SDS011;64760;53.404;23.498;2023-09-07T04:39:19;10.93;;;5.68;;
73593;SDS011;64760;53.404;23.498;2023-09-07T04:41:45;9.82;;;5.75;;
73593;SDS011;64760;53.404;23.498;2023-09-07T04:44:13;9.70;;;6.10;;
73593;SDS011;64760;53.404;23.498;2023-09-07T04:46:41;9.48;;;5.53;;
73593;SDS011;64760;53.404;23.498;2023-09-07T04:49:08;10.57;;;6.05;;
73593;SDS011;64760;53.404;23.498;2023-09-07T04:51:34;12.77;;;6.05;;
73593;SDS011;64760;53.404;23.498;2023-09-07T04:54:01;11.45;;;6.53;;
73593;SDS011;64760;53.404;23.498;2023-09-07T04:56:28;9.55;;;5.70;;
73593;SDS011;64760;53.404;23.498;2023-09-07T05:01:21;11.15;;;6.15;;
73593;SDS011;64760;53.404;23.498;2023-09-07T05:03:48;10.32;;;5.90;;
73593;SDS011;64760;53.404;23.498;2023-09-07T05:06:16;12.35;;;5.90;;
73593;SDS011;64760;53.404;23.498;2023-09-07T05:08:42;9.77;;;5.18;;
73593;SDS011;64760;53.404;23.498;2023-09-07T05:11:09;12.35;;;6.30;;
73593;SDS011;64760;53.404;23.498;2023-09-07T05:13:36;9.80;;;5.75;;
73593;SDS011;64760;53.404;23.498;2023-09-07T05:16:02;8.65;;;5.65;;
73593;SDS011;64760;53.404;23.498;2023-09-07T05:18:31;10.70;;;5.90;;
73593;SDS011;64760;53.404;23.498;2023-09-07T05:20:58;9.38;;;5.65;;
73593;SDS011;64760;53.404;23.498;2023-09-07T05:23:26;11.48;;;6.10;;
73593;SDS011;64760;53.404;23.498;2023-09-07T05:25:53;11.27;;;6.00;;
73593;SDS011;64760;53.404;23.498;2023-09-07T05:28:22;8.88;;;5.30;;
73593;SDS011;64760;53.404;23.498;2023-09-07T05:30:51;9.32;;;5.05;;
73593;SDS011;64760;53.404;23.498;2023-09-07T05:33:19;11.75;;;5.80;;
73593;SDS011;64760;53.404;23.498;2023-09-07T05:35:46;11.35;;;5.93;;
73593;SDS011;64760;53.404;23.498;2023-09-07T05:38:12;9.48;;;5.25;;
73593;SDS011;64760;53.404;23.498;2023-09-07T05:40:40;9.32;;;4.63;;
73593;SDS011;64760;53.404;23.498;2023-09-07T05:43:13;8.77;;;4.78;;
73593;SDS011;64760;53.404;23.498;2023-09-07T05:45:40;10.25;;;6.35;;
73593;SDS011;64760;53.404;23.498;2023-09-07T05:48:08;12.77;;;5.25;;
73593;SDS011;64760;53.404;23.498;2023-09-07T05:50:35;8.07;;;4.32;;
73593;SDS011;64760;53.404;23.498;2023-09-07T05:53:03;7.90;;;4.90;;
73593;SDS011;64760;53.404;23.498;2023-09-07T05:55:30;9.85;;;5.13;;
73593;SDS011;64760;53.404;23.498;2023-09-07T05:57:57;8.65;;;4.78;;
73593;SDS011;64760;53.404;23.498;2023-09-07T06:00:26;8.10;;;4.88;;
73593;SDS011;64760;53.404;23.498;2023-09-07T06:02:53;8.13;;;4.60;;
73593;SDS011;64760;53.404;23.498;2023-09-07T06:05:19;8.13;;;4.72;;
73593;SDS011;64760;53.404;23.498;2023-09-07T06:07:48;11.48;;;4.30;;
73593;SDS011;64760;53.404;23.498;2023-09-07T06:10:16;8.18;;;3.90;;
73593;SDS011;64760;53.404;23.498;2023-09-07T06:12:44;6.75;;;3.90;;
73593;SDS011;64760;53.404;23.498;2023-09-07T06:15:11;8.10;;;3.92;;
73593;SDS011;64760;53.404;23.498;2023-09-07T06:17:39;8.57;;;3.50;;
73593;SDS011;64760;53.404;23.498;2023-09-07T06:20:06;6.03;;;3.30;;
73593;SDS011;64760;53.404;23.498;2023-09-07T06:22:33;6.50;;;3.30;;
73593;SDS011;64760;53.404;23.498;2023-09-07T06:25:00;6.75;;;3.35;;
73593;SDS011;64760;53.404;23.498;2023-09-07T06:27:32;6.35;;;3.15;;
73593;SDS011;64760;53.404;23.498;2023-09-07T06:29:58;6.68;;;3.22;;
73593;SDS011;64760;53.404;23.498;2023-09-07T06:32:25;5.55;;;3.28;;
73593;SDS011;64760;53.404;23.498;2023-09-07T06:34:51;6.38;;;3.47;;
73593;SDS011;64760;53.404;23.498;2023-09-07T06:37:18;6.80;;;3.25;;
73593;SDS011;64760;53.404;23.498;2023-09-07T06:39:44;5.53;;;3.10;;
73593;SDS011;64760;53.404;23.498;2023-09-07T06:42:12;8.10;;;3.38;;
73593;SDS011;64760;53.404;23.498;2023-09-07T06:44:46;6.47;;;3.45;;
73593;SDS011;64760;53.404;23.498;2023-09-07T06:47:14;5.47;;;3.20;;
73593;SDS011;64760;53.404;23.498;2023-09-07T06:49:40;6.72;;;3.35;;
73593;SDS011;64760;53.404;23.498;2023-09-07T06:52:08;4.75;;;3.13;;
73593;SDS011;64760;53.404;23.498;2023-09-07T06:54:37;6.78;;;2.92;;
73593;SDS011;64760;53.404;23.498;2023-09-07T06:57:08;8.38;;;3.22;;
73593;SDS011;64760;53.404;23.498;2023-09-07T06:59:37;5.18;;;3.00;;
73593;SDS011;64760;53.404;23.498;2023-09-07T07:02:05;5.93;;;3.00;;
73593;SDS011;64760;53.404;23.498;2023-09-07T07:04:32;5.38;;;3.33;;
73593;SDS011;64760;53.404;23.498;2023-09-07T07:07:00;6.35;;;3.30;;
73593;SDS011;64760;53.404;23.498;2023-09-07T07:09:30;4.43;;;2.63;;
73593;SDS011;64760;53.404;23.498;2023-09-07T07:11:59;5.28;;;2.83;;
73593;SDS011;64760;53.404;23.498;2023-09-07T07:14:29;6.70;;;2.58;;
73593;SDS011;64760;53.404;23.498;2023-09-07T07:16:56;10.30;;;3.70;;
73593;SDS011;64760;53.404;23.498;2023-09-07T07:19:22;8.18;;;3.33;;
73593;SDS011;64760;53.404;23.498;2023-09-07T07:21:51;6.45;;;2.72;;
73593;SDS011;64760;53.404;23.498;2023-09-07T07:24:18;15.82;;;3.40;;
73593;SDS011;64760;53.404;23.498;2023-09-07T07:26:46;73.93;;;9.60;;
73593;SDS011;64760;53.404;23.498;2023-09-07T07:29:13;7.72;;;3.10;;
73593;SDS011;64760;53.404;23.498;2023-09-07T07:31:40;36.97;;;5.05;;
73593;SDS011;64760;53.404;23.498;2023-09-07T07:34:07;25.40;;;6.03;;
73593;SDS011;64760;53.404;23.498;2023-09-07T07:36:33;28.20;;;5.35;;
73593;SDS011;64760;53.404;23.498;2023-09-07T07:39:02;7.57;;;3.67;;
73593;SDS011;64760;53.404;23.498;2023-09-07T07:41:29;5.50;;;2.58;;
73593;SDS011;64760;53.404;23.498;2023-09-07T07:43:56;10.73;;;2.78;;
73593;SDS011;64760;53.404;23.498;2023-09-07T07:46:25;5.57;;;2.75;;
73593;SDS011;64760;53.404;23.498;2023-09-07T07:48:51;5.80;;;2.70;;
73593;SDS011;64760;53.404;23.498;2023-09-07T07:51:17;4.63;;;2.38;;
73593;SDS011;64760;53.404;23.498;2023-09-07T07:53:46;3.78;;;2.00;;
73593;SDS011;64760;53.404;23.498;2023-09-07T07:56:16;7.03;;;2.67;;
73593;SDS011;64760;53.404;23.498;2023-09-07T07:58:48;6.20;;;2.67;;
73593;SDS011;64760;53.404;23.498;2023-09-07T08:01:19;4.60;;;2.30;;
73593;SDS011;64760;53.404;23.498;2023-09-07T08:03:47;8.10;;;2.90;;
73593;SDS011;64760;53.404;23.498;2023-09-07T08:06:14;6.88;;;2.50;;
73593;SDS011;64760;53.404;23.498;2023-09-07T08:08:41;6.57;;;2.60;;
73593;SDS011;64760;53.404;23.498;2023-09-07T08:11:08;5.70;;;2.45;;
73593;SDS011;64760;53.404;23.498;2023-09-07T08:13:37;5.93;;;2.33;;
73593;SDS011;64760;53.404;23.498;2023-09-07T08:16:06;5.57;;;2.75;;
73593;SDS011;64760;53.404;23.498;2023-09-07T08:18:33;4.32;;;2.65;;
73593;SDS011;64760;53.404;23.498;2023-09-07T08:21:00;3.92;;;2.35;;
73593;SDS011;64760;53.404;23.498;2023-09-07T08:23:27;3.55;;;2.08;;
73593;SDS011;64760;53.404;23.498;2023-09-07T08:25:55;5.82;;;2.65;;
73593;SDS011;64760;53.404;23.498;2023-09-07T08:28:23;4.93;;;2.67;;
73593;SDS011;64760;53.404;23.498;2023-09-07T08:30:52;4.15;;;2.53;;
73593;SDS011;64760;53.404;23.498;2023-09-07T08:33:19;5.82;;;2.42;;
73593;SDS011;64760;53.404;23.498;2023-09-07T08:35:52;6.22;;;2.42;;
73593;SDS011;64760;53.404;23.498;2023-09-07T08:38:21;5.05;;;2.65;;
73593;SDS011;64760;53.404;23.498;2023-09-07T08:40:54;4.65;;;2.50;;
73593;SDS011;64760;53.404;23.498;2023-09-07T08:43:24;4.35;;;2.60;;
73593;SDS011;64760;53.404;23.498;2023-09-07T08:45:55;5.35;;;2.28;;
73593;SDS011;64760;53.404;23.498;2023-09-07T08:48:29;4.70;;;2.47;;
73593;SDS011;64760;53.404;23.498;2023-09-07T08:50:57;5.53;;;2.53;;
73593;SDS011;64760;53.404;23.498;2023-09-07T08:53:23;4.70;;;2.67;;
73593;SDS011;64760;53.404;23.498;2023-09-07T08:55:51;5.05;;;2.20;;
73593;SDS011;64760;53.404;23.498;2023-09-07T08:58:17;6.22;;;2.78;;
73593;SDS011;64760;53.404;23.498;2023-09-07T09:00:44;4.72;;;2.47;;
73593;SDS011;64760;53.404;23.498;2023-09-07T09:03:10;3.97;;;2.40;;
73593;SDS011;64760;53.404;23.498;2023-09-07T09:05:39;4.22;;;2.35;;
73593;SDS011;64760;53.404;23.498;2023-09-07T09:08:07;3.95;;;2.30;;
73593;SDS011;64760;53.404;23.498;2023-09-07T09:10:37;6.82;;;3.00;;
73593;SDS011;64760;53.404;23.498;2023-09-07T09:13:04;6.80;;;2.58;;
73593;SDS011;64760;53.404;23.498;2023-09-07T09:15:31;5.38;;;2.80;;
73593;SDS011;64760;53.404;23.498;2023-09-07T09:17:58;5.82;;;2.53;;
73593;SDS011;64760;53.404;23.498;2023-09-07T09:20:24;6.75;;;2.47;;
73593;SDS011;64760;53.404;23.498;2023-09-07T09:22:54;5.45;;;2.38;;
73593;SDS011;64760;53.404;23.498;2023-09-07T09:25:22;5.22;;;2.47;;
73593;SDS011;64760;53.404;23.498;2023-09-07T09:27:50;4.28;;;2.22;;
73593;SDS011;64760;53.404;23.498;2023-09-07T09:30:26;6.85;;;2.38;;
73593;SDS011;64760;53.404;23.498;2023-09-07T09:32:53;5.50;;;2.20;;
73593;SDS011;64760;53.404;23.498;2023-09-07T09:35:20;4.43;;;2.30;;
73593;SDS011;64760;53.404;23.498;2023-09-07T09:37:46;6.53;;;2.30;;
73593;SDS011;64760;53.404;23.498;2023-09-07T09:40:15;6.60;;;2.53;;
73593;SDS011;64760;53.404;23.498;2023-09-07T09:45:11;4.90;;;2.33;;
73593;SDS011;64760;53.404;23.498;2023-09-07T09:50:05;4.60;;;2.17;;
73593;SDS011;64760;53.404;23.498;2023-09-07T09:52:36;8.90;;;2.33;;
73593;SDS011;64760;53.404;23.498;2023-09-07T09:55:04;6.90;;;2.40;;
73593;SDS011;64760;53.404;23.498;2023-09-07T09:57:34;6.90;;;2.38;;
73593;SDS011;64760;53.404;23.498;2023-09-07T10:00:02;5.50;;;2.80;;
73593;SDS011;64760;53.404;23.498;2023-09-07T10:03:00;5.93;;;2.25;;
73593;SDS011;64760;53.404;23.498;2023-09-07T10:05:32;4.30;;;1.90;;
73593;SDS011;64760;53.404;23.498;2023-09-07T10:08:00;5.18;;;2.30;;
73593;SDS011;64760;53.404;23.498;2023-09-07T10:10:33;6.50;;;2.42;;
73593;SDS011;64760;53.404;23.498;2023-09-07T10:13:03;3.60;;;2.05;;
73593;SDS011;64760;53.404;23.498;2023-09-07T10:15:32;4.85;;;2.33;;
73593;SDS011;64760;53.404;23.498;2023-09-07T10:18:02;6.57;;;2.38;;
73593;SDS011;64760;53.404;23.498;2023-09-07T10:26:40;4.93;;;2.10;;
73593;SDS011;64760;53.404;23.498;2023-09-07T10:29:10;6.47;;;2.08;;
73593;SDS011;64760;53.404;23.498;2023-09-07T10:31:50;8.27;;;2.60;;
73593;SDS011;64760;53.404;23.498;2023-09-07T10:34:19;8.25;;;2.65;;
73593;SDS011;64760;53.404;23.498;2023-09-07T10:36:55;4.93;;;1.92;;
73593;SDS011;64760;53.404;23.498;2023-09-07T10:39:22;4.63;;;2.20;;
73593;SDS011;64760;53.404;23.498;2023-09-07T10:41:48;4.53;;;2.33;;
73593;SDS011;64760;53.404;23.498;2023-09-07T10:44:15;5.22;;;2.15;;
73593;SDS011;64760;53.404;23.498;2023-09-07T10:46:42;5.13;;;2.25;;
73593;SDS011;64760;53.404;23.498;2023-09-07T10:49:10;5.15;;;2.83;;
73593;SDS011;64760;53.404;23.498;2023-09-07T10:51:46;9.32;;;2.88;;
73593;SDS011;64760;53.404;23.498;2023-09-07T10:54:13;4.70;;;2.00;;
73593;SDS011;64760;53.404;23.498;2023-09-07T10:56:44;7.15;;;2.10;;
73593;SDS011;64760;53.404;23.498;2023-09-07T10:59:15;6.88;;;2.50;;
